createdAt,value
2022-10-14T00:00:53.270Z,0
2022-10-14T00:06:16.272Z,0
2022-10-14T00:11:38.794Z,0
2022-10-14T00:17:10.313Z,0
2022-10-14T00:22:32.702Z,0
2022-10-14T00:27:54.921Z,0
2022-10-14T00:33:17.363Z,0
2022-10-14T00:38:39.907Z,0
2022-10-14T00:44:08.548Z,0
2022-10-14T00:49:31.231Z,0
2022-10-14T00:54:53.695Z,3
2022-10-14T01:05:44.188Z,0
2022-10-14T01:11:09.550Z,0
2022-10-14T01:16:31.990Z,0
2022-10-14T01:21:54.881Z,0
2022-10-14T01:27:17.764Z,0
2022-10-14T01:32:40.622Z,0
2022-10-14T01:38:05.977Z,0
2022-10-14T01:43:30.889Z,0
2022-10-14T01:48:55.747Z,0
2022-10-14T01:54:18.475Z,3
2022-10-14T01:59:41.028Z,0
2022-10-14T02:05:06.696Z,0
2022-10-14T02:10:29.840Z,0
2022-10-14T02:15:52.440Z,0
2022-10-14T02:21:14.744Z,0
2022-10-14T02:26:37.404Z,0
2022-10-14T02:32:00.166Z,0
2022-10-14T02:37:25.763Z,3
2022-10-14T02:48:19.820Z,0
2022-10-14T02:53:42.794Z,0
2022-10-14T02:59:05.487Z,0
2022-10-14T03:04:28.036Z,0
2022-10-14T03:09:50.857Z,0
2022-10-14T03:15:13.761Z,0
2022-10-14T03:20:57.177Z,0
2022-10-14T03:26:20.027Z,0
2022-10-14T03:31:42.918Z,0
2022-10-14T03:37:05.376Z,0
2022-10-14T03:43:13.099Z,0
2022-10-14T03:48:36.101Z,0
2022-10-14T03:54:29.543Z,0
2022-10-14T03:59:52.928Z,0
2022-10-14T04:05:15.427Z,0
2022-10-14T04:10:40.014Z,0
2022-10-14T04:16:03.030Z,0
2022-10-14T04:21:25.538Z,0
2022-10-14T04:26:48.027Z,0
2022-10-14T04:32:10.839Z,0
2022-10-14T04:37:33.185Z,0
2022-10-14T04:42:55.906Z,0
2022-10-14T04:48:18.419Z,0
2022-10-14T05:04:25.969Z,0
2022-10-14T05:09:56.989Z,0
2022-10-14T05:15:19.950Z,0
2022-10-14T05:20:43.868Z,0
2022-10-14T05:26:06.631Z,0
2022-10-14T05:31:29.371Z,0
2022-10-14T05:37:04.888Z,0
2022-10-14T05:42:30.204Z,0
2022-10-14T05:47:52.953Z,9
2022-10-14T05:53:15.851Z,15
2022-10-14T05:58:38.862Z,18
2022-10-14T06:04:01.956Z,27.1
2022-10-14T06:09:24.253Z,31.2
2022-10-14T06:14:47.063Z,32.5
2022-10-14T06:20:09.609Z,37.5
2022-10-14T06:25:32.324Z,54.1
2022-10-14T06:31:05.855Z,56.6
2022-10-14T06:36:28.418Z,73.6
2022-10-14T06:41:50.879Z,87.1
2022-10-14T06:57:58.271Z,196.6
2022-10-14T07:03:33.667Z,203.2
2022-10-14T07:08:56.373Z,238.6
2022-10-14T07:14:21.705Z,276.7
2022-10-14T07:19:44.202Z,278.8
2022-10-14T07:25:06.631Z,225
2022-10-14T07:30:35.443Z,250.1
2022-10-14T07:35:58.216Z,288.5
2022-10-14T07:41:40.943Z,344.1
2022-10-14T07:47:05.942Z,337.9
2022-10-14T07:52:29.675Z,328.2
2022-10-14T08:03:18.022Z,380.9
2022-10-14T08:08:40.517Z,422.7
2022-10-14T08:14:03.047Z,499.2
2022-10-14T08:19:25.441Z,409.6
2022-10-14T08:24:56.804Z,303.3
2022-10-14T08:30:19.150Z,276.5
2022-10-14T08:35:42.061Z,281.6
2022-10-14T08:41:04.580Z,307.8
2022-10-14T08:51:57.072Z,318.7
2022-10-14T08:57:19.970Z,328.4
2022-10-14T09:02:51.408Z,357.1
2022-10-14T09:08:14.136Z,415.2
2022-10-14T09:13:36.556Z,414.8
2022-10-14T09:18:59.274Z,393.3
2022-10-14T09:24:21.735Z,410.4
2022-10-14T09:29:44.761Z,431.1
2022-10-14T09:35:10.161Z,450.6
2022-10-14T09:40:32.596Z,409
2022-10-14T09:45:59.774Z,340.2
2022-10-14T09:51:24.933Z,354.4
2022-10-14T09:56:47.327Z,369.9
2022-10-14T10:02:09.787Z,404
2022-10-14T10:07:34.547Z,448.9
2022-10-14T10:12:57.314Z,503.8
2022-10-14T10:18:19.898Z,504.8
2022-10-14T10:23:42.466Z,617.1
2022-10-14T10:29:05.209Z,592.1
2022-10-14T10:39:50.508Z,561.6
2022-10-14T10:45:13.002Z,471
2022-10-14T10:50:35.230Z,457.5
2022-10-14T10:56:03.393Z,428.5
2022-10-14T11:01:26.566Z,380.9
2022-10-14T11:06:49.230Z,344.9
2022-10-14T11:12:11.781Z,268.1
2022-10-14T11:17:34.946Z,294.2
2022-10-14T11:22:57.697Z,253.5
2022-10-14T11:28:28.076Z,262.3
2022-10-14T11:33:50.650Z,328
2022-10-14T11:39:20.845Z,343.3
2022-10-14T11:44:43.567Z,339.1
2022-10-14T11:50:06.048Z,351.8
2022-10-14T11:55:50.263Z,306.4
2022-10-14T12:01:12.673Z,357
2022-10-14T12:06:35.192Z,400.7
2022-10-14T12:12:01.011Z,427.8
2022-10-14T12:17:33.889Z,393
2022-10-14T12:22:56.658Z,341.2
2022-10-14T12:39:04.969Z,290.9
2022-10-14T12:44:30.038Z,432.8
2022-10-14T12:49:52.754Z,441.1
2022-10-14T13:00:31.921Z,420.1
2022-10-14T13:05:54.278Z,415
2022-10-14T13:11:16.745Z,495.4
2022-10-14T13:16:39.549Z,526.2
2022-10-14T13:22:05.420Z,383.6
2022-10-14T13:27:27.897Z,580.9
2022-10-14T13:32:53.496Z,443.1
2022-10-14T13:38:15.850Z,520.1
2022-10-14T13:43:46.206Z,613.5
2022-10-14T13:49:09.060Z,746.5
2022-10-14T13:54:31.349Z,672.9
2022-10-14T14:00:43.104Z,640.5
2022-10-14T14:06:06.002Z,730.1
2022-10-14T14:11:37.759Z,596.8
2022-10-14T14:17:00.701Z,664.5
2022-10-14T14:22:23.506Z,664.2
2022-10-14T14:38:30.576Z,500.9
2022-10-14T14:44:26.616Z,491.4
2022-10-14T14:50:29.320Z,422.8
2022-10-14T14:55:53.073Z,381.8
2022-10-14T15:01:18.494Z,348.4
2022-10-14T15:06:52.149Z,323.8
2022-10-14T15:12:19.408Z,288.8
2022-10-14T15:17:42.199Z,228.2
2022-10-14T15:23:06.941Z,224.3
2022-10-14T15:28:29.847Z,203.7
2022-10-14T15:33:52.477Z,167.2
2022-10-14T15:39:23.499Z,189.6
2022-10-14T15:44:46.183Z,178.2
2022-10-14T15:50:15.930Z,172.2
2022-10-14T15:55:38.390Z,139.6
2022-10-14T16:01:00.881Z,105.1
2022-10-14T16:06:23.502Z,95.8
2022-10-14T16:12:03.650Z,94.7
2022-10-14T16:17:26.377Z,84.2
2022-10-14T16:22:49.254Z,60.5
2022-10-14T16:28:11.757Z,33.2
2022-10-14T16:33:34.207Z,27.1
2022-10-14T16:41:37.433Z,21
2022-10-14T16:47:00.586Z,1
2022-10-14T16:52:24.140Z,3
2022-10-14T16:57:46.939Z,6
2022-10-14T17:03:11.628Z,0
2022-10-14T17:08:34.371Z,0
2022-10-14T17:13:57.581Z,0
2022-10-14T17:19:27.348Z,0
2022-10-14T17:24:50.171Z,0
2022-10-14T17:32:51.415Z,0
2022-10-14T17:38:14.401Z,0
2022-10-14T17:43:39.664Z,0
2022-10-14T17:49:02.285Z,0
2022-10-14T17:54:27.485Z,0
2022-10-14T17:59:50.041Z,0
2022-10-14T18:10:40.866Z,0
2022-10-14T18:16:15.218Z,0
2022-10-14T18:21:37.854Z,0
2022-10-14T18:27:00.440Z,0
2022-10-14T18:32:30.183Z,0
2022-10-14T18:37:52.808Z,0
2022-10-14T18:43:15.258Z,0
2022-10-14T18:48:42.618Z,3
2022-10-14T18:54:05.265Z,0
2022-10-14T18:59:27.615Z,0
2022-10-14T19:04:50.014Z,0
2022-10-14T19:10:12.548Z,0
2022-10-14T19:15:34.868Z,0
2022-10-14T19:20:57.435Z,0
2022-10-14T19:26:20.046Z,0
2022-10-14T19:31:42.575Z,0
2022-10-14T19:37:08.316Z,0
2022-10-14T19:47:59.534Z,0
2022-10-14T19:53:22.695Z,0
2022-10-14T19:58:45.520Z,0
2022-10-14T20:04:07.933Z,2
2022-10-14T20:09:32.903Z,0
2022-10-14T20:14:55.193Z,0
2022-10-14T20:20:17.523Z,3
2022-10-14T20:25:40.301Z,0
2022-10-14T20:31:21.374Z,0
2022-10-14T20:36:44.175Z,0
2022-10-14T20:42:06.747Z,4
2022-10-14T20:47:29.234Z,0
2022-10-14T20:53:15.321Z,0
2022-10-14T20:58:38.299Z,0
2022-10-14T21:14:50.240Z,0
2022-10-14T21:20:12.941Z,0
2022-10-14T21:25:35.202Z,3
2022-10-14T21:30:57.734Z,0
2022-10-14T21:36:20.130Z,0
2022-10-14T21:41:59.325Z,0
2022-10-14T21:47:22.081Z,0
2022-10-14T21:52:44.509Z,0
2022-10-14T21:58:06.910Z,0
2022-10-14T22:03:29.388Z,0
2022-10-14T22:08:54.255Z,0
2022-10-14T22:14:17.296Z,3
2022-10-14T22:19:52.239Z,0
2022-10-14T22:25:14.730Z,0
2022-10-14T22:30:39.593Z,0
2022-10-14T22:36:02.261Z,0
2022-10-14T22:41:24.962Z,0
2022-10-14T22:52:10.787Z,0
2022-10-14T22:57:34.542Z,0
2022-10-14T23:03:20.293Z,0
2022-10-14T23:08:43.287Z,0
2022-10-14T23:14:07.811Z,0
2022-10-14T23:19:43.480Z,0
2022-10-14T23:25:06.084Z,0
2022-10-14T23:31:09.154Z,4
2022-10-14T23:36:32.193Z,4
2022-10-14T23:41:55.803Z,0
2022-10-14T23:47:19.237Z,0
2022-10-14T23:52:47.131Z,0
2022-10-14T23:58:10.402Z,0
